sensor_id;sensor_type;location;lat;lon;timestamp;P1;durP1;ratioP1;P2;durP2;ratioP2
7475;SDS011;3779;49.216;8.650;2023-04-24T00:01:24;0.60;;;0.60;;
7475;SDS011;3779;49.216;8.650;2023-04-24T00:04:10;1.03;;;0.80;;
7475;SDS011;3779;49.216;8.650;2023-04-24T00:06:59;0.70;;;0.70;;
7475;SDS011;3779;49.216;8.650;2023-04-24T00:09:46;0.90;;;0.90;;
7475;SDS011;3779;49.216;8.650;2023-04-24T00:12:32;0.60;;;0.60;;
7475;SDS011;3779;49.216;8.650;2023-04-24T00:15:18;0.77;;;0.70;;
7475;SDS011;3779;49.216;8.650;2023-04-24T00:18:04;0.70;;;0.70;;
7475;SDS011;3779;49.216;8.650;2023-04-24T00:20:50;0.57;;;0.57;;
7475;SDS011;3779;49.216;8.650;2023-04-24T00:23:36;0.90;;;0.80;;
7475;SDS011;3779;49.216;8.650;2023-04-24T00:26:22;0.73;;;0.73;;
7475;SDS011;3779;49.216;8.650;2023-04-24T00:29:08;2.77;;;0.60;;
7475;SDS011;3779;49.216;8.650;2023-04-24T00:31:54;0.63;;;0.63;;
7475;SDS011;3779;49.216;8.650;2023-04-24T00:34:40;0.60;;;0.60;;
7475;SDS011;3779;49.216;8.650;2023-04-24T00:37:26;2.20;;;0.67;;
7475;SDS011;3779;49.216;8.650;2023-04-24T00:40:14;0.70;;;0.70;;
7475;SDS011;3779;49.216;8.650;2023-04-24T00:43:01;1.10;;;0.90;;
7475;SDS011;3779;49.216;8.650;2023-04-24T00:45:47;1.50;;;0.60;;
7475;SDS011;3779;49.216;8.650;2023-04-24T00:48:34;0.60;;;0.60;;
7475;SDS011;3779;49.216;8.650;2023-04-24T00:51:21;0.80;;;0.80;;
7475;SDS011;3779;49.216;8.650;2023-04-24T00:54:09;2.25;;;0.75;;
7475;SDS011;3779;49.216;8.650;2023-04-24T00:56:55;0.87;;;0.70;;
7475;SDS011;3779;49.216;8.650;2023-04-24T00:59:42;1.27;;;0.80;;
7475;SDS011;3779;49.216;8.650;2023-04-24T01:02:28;0.40;;;0.40;;
7475;SDS011;3779;49.216;8.650;2023-04-24T01:05:15;0.63;;;0.63;;
7475;SDS011;3779;49.216;8.650;2023-04-24T01:08:04;0.60;;;0.60;;
7475;SDS011;3779;49.216;8.650;2023-04-24T01:10:53;0.87;;;0.80;;
7475;SDS011;3779;49.216;8.650;2023-04-24T01:13:39;1.37;;;0.90;;
7475;SDS011;3779;49.216;8.650;2023-04-24T01:16:25;0.60;;;0.60;;
7475;SDS011;3779;49.216;8.650;2023-04-24T01:19:13;0.83;;;0.80;;
7475;SDS011;3779;49.216;8.650;2023-04-24T01:22:01;0.80;;;0.80;;
7475;SDS011;3779;49.216;8.650;2023-04-24T01:24:48;0.70;;;0.70;;
7475;SDS011;3779;49.216;8.650;2023-04-24T01:27:34;0.97;;;0.60;;
7475;SDS011;3779;49.216;8.650;2023-04-24T01:30:20;1.80;;;0.63;;
7475;SDS011;3779;49.216;8.650;2023-04-24T01:33:06;0.60;;;0.60;;
7475;SDS011;3779;49.216;8.650;2023-04-24T01:35:52;1.00;;;0.70;;
7475;SDS011;3779;49.216;8.650;2023-04-24T01:38:38;0.40;;;0.30;;
7475;SDS011;3779;49.216;8.650;2023-04-24T01:41:24;0.53;;;0.53;;
7475;SDS011;3779;49.216;8.650;2023-04-24T01:44:10;0.87;;;0.57;;
7475;SDS011;3779;49.216;8.650;2023-04-24T01:46:56;0.60;;;0.60;;
7475;SDS011;3779;49.216;8.650;2023-04-24T01:49:43;0.60;;;0.60;;
7475;SDS011;3779;49.216;8.650;2023-04-24T01:52:31;0.70;;;0.70;;
7475;SDS011;3779;49.216;8.650;2023-04-24T01:55:18;0.70;;;0.70;;
7475;SDS011;3779;49.216;8.650;2023-04-24T01:58:04;0.80;;;0.80;;
7475;SDS011;3779;49.216;8.650;2023-04-24T02:00:50;0.70;;;0.70;;
7475;SDS011;3779;49.216;8.650;2023-04-24T02:03:36;0.57;;;0.57;;
7475;SDS011;3779;49.216;8.650;2023-04-24T02:06:22;1.20;;;0.80;;
7475;SDS011;3779;49.216;8.650;2023-04-24T02:09:08;2.03;;;0.70;;
7475;SDS011;3779;49.216;8.650;2023-04-24T02:11:55;0.50;;;0.50;;
7475;SDS011;3779;49.216;8.650;2023-04-24T02:14:43;1.43;;;0.60;;
7475;SDS011;3779;49.216;8.650;2023-04-24T02:17:29;2.13;;;0.70;;
7475;SDS011;3779;49.216;8.650;2023-04-24T02:20:16;0.73;;;0.57;;
7475;SDS011;3779;49.216;8.650;2023-04-24T02:23:02;0.80;;;0.80;;
7475;SDS011;3779;49.216;8.650;2023-04-24T02:25:48;0.50;;;0.50;;
7475;SDS011;3779;49.216;8.650;2023-04-24T02:28:36;0.80;;;0.80;;
7475;SDS011;3779;49.216;8.650;2023-04-24T02:31:22;1.13;;;0.60;;
7475;SDS011;3779;49.216;8.650;2023-04-24T02:34:08;1.00;;;0.73;;
7475;SDS011;3779;49.216;8.650;2023-04-24T02:36:53;0.73;;;0.57;;
7475;SDS011;3779;49.216;8.650;2023-04-24T02:39:39;0.53;;;0.53;;
7475;SDS011;3779;49.216;8.650;2023-04-24T02:42:25;0.80;;;0.80;;
7475;SDS011;3779;49.216;8.650;2023-04-24T02:45:11;0.90;;;0.60;;
7475;SDS011;3779;49.216;8.650;2023-04-24T02:47:58;0.63;;;0.63;;
7475;SDS011;3779;49.216;8.650;2023-04-24T02:50:44;1.77;;;0.80;;
7475;SDS011;3779;49.216;8.650;2023-04-24T02:53:30;1.97;;;0.90;;
7475;SDS011;3779;49.216;8.650;2023-04-24T02:56:16;0.70;;;0.40;;
7475;SDS011;3779;49.216;8.650;2023-04-24T02:59:02;0.63;;;0.63;;
7475;SDS011;3779;49.216;8.650;2023-04-24T03:01:48;0.68;;;0.60;;
7475;SDS011;3779;49.216;8.650;2023-04-24T03:04:34;0.60;;;0.60;;
7475;SDS011;3779;49.216;8.650;2023-04-24T03:07:20;4.23;;;0.87;;
7475;SDS011;3779;49.216;8.650;2023-04-24T03:10:06;0.83;;;0.77;;
7475;SDS011;3779;49.216;8.650;2023-04-24T03:12:52;1.70;;;0.83;;
7475;SDS011;3779;49.216;8.650;2023-04-24T03:15:40;0.97;;;0.60;;
7475;SDS011;3779;49.216;8.650;2023-04-24T03:18:25;1.90;;;0.83;;
7475;SDS011;3779;49.216;8.650;2023-04-24T03:21:11;0.70;;;0.60;;
7475;SDS011;3779;49.216;8.650;2023-04-24T03:23:57;0.93;;;0.93;;
7475;SDS011;3779;49.216;8.650;2023-04-24T03:26:43;0.70;;;0.70;;
7475;SDS011;3779;49.216;8.650;2023-04-24T03:29:55;1.43;;;1.07;;
7475;SDS011;3779;49.216;8.650;2023-04-24T03:32:46;0.60;;;0.60;;
7475;SDS011;3779;49.216;8.650;2023-04-24T03:35:36;0.63;;;0.63;;
7475;SDS011;3779;49.216;8.650;2023-04-24T03:38:25;1.40;;;0.90;;
7475;SDS011;3779;49.216;8.650;2023-04-24T03:41:36;1.00;;;0.90;;
7475;SDS011;3779;49.216;8.650;2023-04-24T03:44:42;1.03;;;0.77;;
7475;SDS011;3779;49.216;8.650;2023-04-24T03:47:28;0.77;;;0.77;;
7475;SDS011;3779;49.216;8.650;2023-04-24T03:50:17;2.83;;;0.70;;
7475;SDS011;3779;49.216;8.650;2023-04-24T03:53:03;0.70;;;0.70;;
7475;SDS011;3779;49.216;8.650;2023-04-24T03:56:00;1.47;;;0.60;;
7475;SDS011;3779;49.216;8.650;2023-04-24T03:58:46;1.40;;;0.70;;
7475;SDS011;3779;49.216;8.650;2023-04-24T04:01:32;0.87;;;0.83;;
7475;SDS011;3779;49.216;8.650;2023-04-24T04:04:26;0.80;;;0.80;;
7475;SDS011;3779;49.216;8.650;2023-04-24T04:07:12;0.77;;;0.77;;
7475;SDS011;3779;49.216;8.650;2023-04-24T04:09:58;0.80;;;0.80;;
7475;SDS011;3779;49.216;8.650;2023-04-24T04:12:44;0.90;;;0.90;;
7475;SDS011;3779;49.216;8.650;2023-04-24T04:15:30;0.55;;;0.55;;
7475;SDS011;3779;49.216;8.650;2023-04-24T04:18:16;0.60;;;0.60;;
7475;SDS011;3779;49.216;8.650;2023-04-24T04:21:02;0.90;;;0.90;;
7475;SDS011;3779;49.216;8.650;2023-04-24T04:23:48;0.60;;;0.60;;
7475;SDS011;3779;49.216;8.650;2023-04-24T04:26:38;1.00;;;0.88;;
7475;SDS011;3779;49.216;8.650;2023-04-24T04:29:28;0.73;;;0.73;;
7475;SDS011;3779;49.216;8.650;2023-04-24T04:32:15;0.50;;;0.50;;
7475;SDS011;3779;49.216;8.650;2023-04-24T04:35:02;0.77;;;0.77;;
7475;SDS011;3779;49.216;8.650;2023-04-24T04:41:11;1.37;;;1.00;;
7475;SDS011;3779;49.216;8.650;2023-04-24T04:43:57;1.27;;;1.00;;
7475;SDS011;3779;49.216;8.650;2023-04-24T04:46:46;0.70;;;0.70;;
7475;SDS011;3779;49.216;8.650;2023-04-24T04:49:59;1.60;;;1.50;;
7475;SDS011;3779;49.216;8.650;2023-04-24T04:52:46;0.70;;;0.70;;
7475;SDS011;3779;49.216;8.650;2023-04-24T04:55:41;0.90;;;0.90;;
7475;SDS011;3779;49.216;8.650;2023-04-24T04:58:33;1.20;;;0.95;;
7475;SDS011;3779;49.216;8.650;2023-04-24T05:01:20;1.13;;;1.02;;
7475;SDS011;3779;49.216;8.650;2023-04-24T05:04:09;0.90;;;0.90;;
7475;SDS011;3779;49.216;8.650;2023-04-24T05:06:56;0.90;;;0.90;;
7475;SDS011;3779;49.216;8.650;2023-04-24T05:09:43;1.10;;;1.00;;
7475;SDS011;3779;49.216;8.650;2023-04-24T05:12:30;1.23;;;1.10;;
7475;SDS011;3779;49.216;8.650;2023-04-24T05:15:16;1.20;;;1.00;;
7475;SDS011;3779;49.216;8.650;2023-04-24T05:18:03;3.67;;;1.02;;
7475;SDS011;3779;49.216;8.650;2023-04-24T05:20:49;1.20;;;1.08;;
7475;SDS011;3779;49.216;8.650;2023-04-24T05:23:35;1.00;;;1.00;;
7475;SDS011;3779;49.216;8.650;2023-04-24T05:26:21;2.33;;;1.10;;
7475;SDS011;3779;49.216;8.650;2023-04-24T05:29:08;0.90;;;0.80;;
7475;SDS011;3779;49.216;8.650;2023-04-24T05:31:54;1.00;;;1.00;;
7475;SDS011;3779;49.216;8.650;2023-04-24T05:34:40;1.20;;;1.10;;
7475;SDS011;3779;49.216;8.650;2023-04-24T05:37:27;0.57;;;0.57;;
7475;SDS011;3779;49.216;8.650;2023-04-24T05:40:13;0.80;;;0.80;;
7475;SDS011;3779;49.216;8.650;2023-04-24T05:42:59;1.98;;;1.05;;
7475;SDS011;3779;49.216;8.650;2023-04-24T05:45:45;1.10;;;1.00;;
7475;SDS011;3779;49.216;8.650;2023-04-24T05:48:31;0.70;;;0.70;;
7475;SDS011;3779;49.216;8.650;2023-04-24T05:51:19;1.43;;;1.10;;
7475;SDS011;3779;49.216;8.650;2023-04-24T05:54:05;1.67;;;1.33;;
7475;SDS011;3779;49.216;8.650;2023-04-24T05:56:51;1.70;;;0.97;;
7475;SDS011;3779;49.216;8.650;2023-04-24T05:59:50;1.03;;;1.03;;
7475;SDS011;3779;49.216;8.650;2023-04-24T06:02:37;1.00;;;1.00;;
7475;SDS011;3779;49.216;8.650;2023-04-24T06:05:25;0.80;;;0.80;;
7475;SDS011;3779;49.216;8.650;2023-04-24T06:08:12;1.25;;;1.10;;
7475;SDS011;3779;49.216;8.650;2023-04-24T06:11:01;1.70;;;1.60;;
7475;SDS011;3779;49.216;8.650;2023-04-24T06:13:48;1.13;;;1.13;;
7475;SDS011;3779;49.216;8.650;2023-04-24T06:17:00;1.13;;;1.03;;
7475;SDS011;3779;49.216;8.650;2023-04-24T06:19:53;0.80;;;0.80;;
7475;SDS011;3779;49.216;8.650;2023-04-24T06:22:41;1.00;;;1.00;;
7475;SDS011;3779;49.216;8.650;2023-04-24T06:25:28;1.30;;;1.20;;
7475;SDS011;3779;49.216;8.650;2023-04-24T06:28:14;1.27;;;1.10;;
7475;SDS011;3779;49.216;8.650;2023-04-24T06:31:00;2.50;;;1.60;;
7475;SDS011;3779;49.216;8.650;2023-04-24T06:33:46;1.27;;;1.17;;
7475;SDS011;3779;49.216;8.650;2023-04-24T06:36:39;1.57;;;1.17;;
7475;SDS011;3779;49.216;8.650;2023-04-24T06:39:25;0.90;;;0.90;;
7475;SDS011;3779;49.216;8.650;2023-04-24T06:42:10;1.30;;;1.20;;
7475;SDS011;3779;49.216;8.650;2023-04-24T06:44:59;0.90;;;0.90;;
7475;SDS011;3779;49.216;8.650;2023-04-24T06:47:45;2.93;;;1.23;;
7475;SDS011;3779;49.216;8.650;2023-04-24T06:50:31;1.10;;;1.00;;
7475;SDS011;3779;49.216;8.650;2023-04-24T06:53:17;1.20;;;1.10;;
7475;SDS011;3779;49.216;8.650;2023-04-24T06:56:02;2.53;;;1.40;;
7475;SDS011;3779;49.216;8.650;2023-04-24T06:58:49;2.07;;;1.10;;
7475;SDS011;3779;49.216;8.650;2023-04-24T07:01:35;2.13;;;1.40;;
7475;SDS011;3779;49.216;8.650;2023-04-24T07:04:24;1.00;;;1.00;;
7475;SDS011;3779;49.216;8.650;2023-04-24T07:07:11;0.90;;;0.90;;
7475;SDS011;3779;49.216;8.650;2023-04-24T07:09:59;3.97;;;2.10;;
7475;SDS011;3779;49.216;8.650;2023-04-24T07:12:45;1.00;;;1.00;;
7475;SDS011;3779;49.216;8.650;2023-04-24T07:15:32;1.00;;;1.00;;
7475;SDS011;3779;49.216;8.650;2023-04-24T07:18:19;1.00;;;1.00;;
7475;SDS011;3779;49.216;8.650;2023-04-24T07:21:06;1.27;;;0.80;;
7475;SDS011;3779;49.216;8.650;2023-04-24T07:23:52;1.40;;;1.07;;
7475;SDS011;3779;49.216;8.650;2023-04-24T07:26:38;1.10;;;1.00;;
7475;SDS011;3779;49.216;8.650;2023-04-24T07:29:25;1.27;;;1.17;;
7475;SDS011;3779;49.216;8.650;2023-04-24T07:32:12;1.20;;;1.10;;
7475;SDS011;3779;49.216;8.650;2023-04-24T07:34:59;3.23;;;1.30;;
7475;SDS011;3779;49.216;8.650;2023-04-24T07:37:40;0.90;;;0.83;;
7475;SDS011;3779;49.216;8.650;2023-04-24T07:40:30;0.93;;;0.93;;
7475;SDS011;3779;49.216;8.650;2023-04-24T07:43:16;0.80;;;0.80;;
7475;SDS011;3779;49.216;8.650;2023-04-24T07:46:02;0.70;;;0.70;;
7475;SDS011;3779;49.216;8.650;2023-04-24T07:48:49;2.10;;;1.23;;
7475;SDS011;3779;49.216;8.650;2023-04-24T07:51:37;1.33;;;1.10;;
7475;SDS011;3779;49.216;8.650;2023-04-24T07:54:25;2.20;;;1.30;;
7475;SDS011;3779;49.216;8.650;2023-04-24T07:57:14;2.10;;;1.30;;
7475;SDS011;3779;49.216;8.650;2023-04-24T08:00:02;2.20;;;1.30;;
7475;SDS011;3779;49.216;8.650;2023-04-24T08:02:57;5.23;;;3.43;;
7475;SDS011;3779;49.216;8.650;2023-04-24T08:06:10;3.97;;;2.87;;
7475;SDS011;3779;49.216;8.650;2023-04-24T08:28:44;1.53;;;1.40;;
7475;SDS011;3779;49.216;8.650;2023-04-24T09:32:08;1.23;;;1.10;;
7475;SDS011;3779;49.216;8.650;2023-04-24T09:37:52;1.17;;;1.07;;
7475;SDS011;3779;49.216;8.650;2023-04-24T09:43:34;1.27;;;1.17;;
7475;SDS011;3779;49.216;8.650;2023-04-24T09:46:21;5.97;;;1.23;;
7475;SDS011;3779;49.216;8.650;2023-04-24T09:49:16;1.95;;;1.40;;
7475;SDS011;3779;49.216;8.650;2023-04-24T09:52:09;2.10;;;1.42;;
7475;SDS011;3779;49.216;8.650;2023-04-24T09:54:56;2.60;;;1.70;;
7475;SDS011;3779;49.216;8.650;2023-04-24T09:57:52;1.30;;;1.20;;
7475;SDS011;3779;49.216;8.650;2023-04-24T10:00:45;1.80;;;1.53;;
7475;SDS011;3779;49.216;8.650;2023-04-24T10:03:31;1.97;;;1.30;;
7475;SDS011;3779;49.216;8.650;2023-04-24T10:06:18;1.30;;;1.20;;
7475;SDS011;3779;49.216;8.650;2023-04-24T10:09:04;1.73;;;1.43;;
7475;SDS011;3779;49.216;8.650;2023-04-24T10:11:51;1.97;;;1.60;;
7475;SDS011;3779;49.216;8.650;2023-04-24T10:14:39;1.50;;;1.40;;
7475;SDS011;3779;49.216;8.650;2023-04-24T10:17:28;2.20;;;1.40;;
7475;SDS011;3779;49.216;8.650;2023-04-24T10:20:14;1.33;;;1.23;;
7475;SDS011;3779;49.216;8.650;2023-04-24T10:23:01;1.30;;;1.20;;
7475;SDS011;3779;49.216;8.650;2023-04-24T10:25:48;2.37;;;1.70;;
7475;SDS011;3779;49.216;8.650;2023-04-24T10:28:36;1.65;;;1.40;;
7475;SDS011;3779;49.216;8.650;2023-04-24T10:31:22;2.80;;;1.58;;
7475;SDS011;3779;49.216;8.650;2023-04-24T10:36:56;1.83;;;1.33;;
7475;SDS011;3779;49.216;8.650;2023-04-24T10:48:52;1.77;;;1.50;;
7475;SDS011;3779;49.216;8.650;2023-04-24T10:51:47;1.37;;;1.27;;
7475;SDS011;3779;49.216;8.650;2023-04-24T10:54:42;1.37;;;1.03;;
7475;SDS011;3779;49.216;8.650;2023-04-24T10:57:31;1.50;;;1.40;;
7475;SDS011;3779;49.216;8.650;2023-04-24T11:00:21;1.40;;;1.30;;
7475;SDS011;3779;49.216;8.650;2023-04-24T11:03:09;1.10;;;1.10;;
7475;SDS011;3779;49.216;8.650;2023-04-24T11:06:17;1.70;;;1.30;;
7475;SDS011;3779;49.216;8.650;2023-04-24T11:09:17;1.60;;;1.50;;
7475;SDS011;3779;49.216;8.650;2023-04-24T11:12:07;1.77;;;1.60;;
7475;SDS011;3779;49.216;8.650;2023-04-24T12:15:49;5.83;;;1.97;;
7475;SDS011;3779;49.216;8.650;2023-04-24T12:18:40;1.53;;;1.30;;
7475;SDS011;3779;49.216;8.650;2023-04-24T12:21:28;1.83;;;1.13;;
7475;SDS011;3779;49.216;8.650;2023-04-24T12:24:15;2.20;;;2.00;;
7475;SDS011;3779;49.216;8.650;2023-04-24T12:32:52;2.17;;;1.10;;
7475;SDS011;3779;49.216;8.650;2023-04-24T12:35:40;2.57;;;1.47;;
7475;SDS011;3779;49.216;8.650;2023-04-24T12:38:27;1.37;;;1.27;;
7475;SDS011;3779;49.216;8.650;2023-04-24T12:41:15;1.63;;;1.13;;
7475;SDS011;3779;49.216;8.650;2023-04-24T12:44:01;1.43;;;1.30;;
7475;SDS011;3779;49.216;8.650;2023-04-24T12:46:47;1.43;;;1.33;;
7475;SDS011;3779;49.216;8.650;2023-04-24T12:49:33;2.47;;;1.70;;
7475;SDS011;3779;49.216;8.650;2023-04-24T12:52:19;1.13;;;1.07;;
7475;SDS011;3779;49.216;8.650;2023-04-24T12:55:05;1.80;;;1.37;;
7475;SDS011;3779;49.216;8.650;2023-04-24T12:57:55;3.50;;;1.37;;
7475;SDS011;3779;49.216;8.650;2023-04-24T13:00:41;1.73;;;1.20;;
7475;SDS011;3779;49.216;8.650;2023-04-24T13:03:28;1.03;;;1.00;;
7475;SDS011;3779;49.216;8.650;2023-04-24T13:06:14;2.60;;;1.33;;
7475;SDS011;3779;49.216;8.650;2023-04-24T13:11:50;1.60;;;1.33;;
7475;SDS011;3779;49.216;8.650;2023-04-24T13:14:36;0.67;;;0.67;;
7475;SDS011;3779;49.216;8.650;2023-04-24T13:17:23;1.67;;;1.30;;
7475;SDS011;3779;49.216;8.650;2023-04-24T13:20:08;2.37;;;1.50;;
7475;SDS011;3779;49.216;8.650;2023-04-24T13:22:54;1.93;;;1.50;;
7475;SDS011;3779;49.216;8.650;2023-04-24T13:25:40;1.20;;;1.10;;
7475;SDS011;3779;49.216;8.650;2023-04-24T13:28:27;1.07;;;0.97;;
7475;SDS011;3779;49.216;8.650;2023-04-24T13:31:14;1.42;;;1.20;;
7475;SDS011;3779;49.216;8.650;2023-04-24T13:34:01;1.30;;;1.20;;
7475;SDS011;3779;49.216;8.650;2023-04-24T14:13:10;1.25;;;1.15;;
7475;SDS011;3779;49.216;8.650;2023-04-24T14:15:56;2.33;;;1.60;;
7475;SDS011;3779;49.216;8.650;2023-04-24T14:18:44;1.20;;;1.10;;
7475;SDS011;3779;49.216;8.650;2023-04-24T14:33:34;3.07;;;1.67;;
7475;SDS011;3779;49.216;8.650;2023-04-24T14:39:14;1.37;;;1.27;;
7475;SDS011;3779;49.216;8.650;2023-04-24T14:45:12;2.37;;;1.70;;
7475;SDS011;3779;49.216;8.650;2023-04-24T18:50:54;2.47;;;1.88;;
7475;SDS011;3779;49.216;8.650;2023-04-24T18:56:36;3.33;;;1.73;;
7475;SDS011;3779;49.216;8.650;2023-04-24T18:59:23;2.13;;;1.60;;
7475;SDS011;3779;49.216;8.650;2023-04-24T19:02:10;2.33;;;2.00;;
7475;SDS011;3779;49.216;8.650;2023-04-24T19:11:01;1.77;;;1.30;;
7475;SDS011;3779;49.216;8.650;2023-04-24T19:29:16;1.60;;;1.20;;
7475;SDS011;3779;49.216;8.650;2023-04-24T19:32:02;2.03;;;1.37;;
7475;SDS011;3779;49.216;8.650;2023-04-24T19:34:48;1.90;;;1.80;;
7475;SDS011;3779;49.216;8.650;2023-04-24T19:37:35;1.67;;;1.00;;
7475;SDS011;3779;49.216;8.650;2023-04-24T19:49:25;1.30;;;1.20;;
7475;SDS011;3779;49.216;8.650;2023-04-24T19:52:11;2.00;;;1.50;;
7475;SDS011;3779;49.216;8.650;2023-04-24T19:54:59;1.37;;;1.20;;
7475;SDS011;3779;49.216;8.650;2023-04-24T20:04:04;1.40;;;1.30;;
7475;SDS011;3779;49.216;8.650;2023-04-24T20:12:57;2.00;;;1.40;;
7475;SDS011;3779;49.216;8.650;2023-04-24T20:45:05;1.30;;;1.17;;
7475;SDS011;3779;49.216;8.650;2023-04-24T22:27:42;0.93;;;0.93;;
7475;SDS011;3779;49.216;8.650;2023-04-24T22:30:30;1.00;;;1.00;;
7475;SDS011;3779;49.216;8.650;2023-04-24T22:33:16;2.88;;;1.10;;
7475;SDS011;3779;49.216;8.650;2023-04-24T22:39:04;0.98;;;0.93;;
7475;SDS011;3779;49.216;8.650;2023-04-24T22:54:02;1.40;;;1.30;;
7475;SDS011;3779;49.216;8.650;2023-04-24T23:02:46;1.40;;;0.80;;
7475;SDS011;3779;49.216;8.650;2023-04-24T23:11:44;2.00;;;1.00;;
7475;SDS011;3779;49.216;8.650;2023-04-24T23:17:33;1.40;;;1.30;;
7475;SDS011;3779;49.216;8.650;2023-04-24T23:26:18;1.17;;;1.17;;
7475;SDS011;3779;49.216;8.650;2023-04-24T23:32:09;1.83;;;1.10;;
7475;SDS011;3779;49.216;8.650;2023-04-24T23:40:53;1.67;;;1.40;;
7475;SDS011;3779;49.216;8.650;2023-04-24T23:43:29;1.70;;;1.20;;
7475;SDS011;3779;49.216;8.650;2023-04-24T23:58:25;0.87;;;0.87;;
